الكل
Fisher County Airport (Rotan/Roby, TX) 56F حالة الطقس
There is no TAF data available at 56F or any nearby airports.
There is no METAR data available at 56F. Showing METAR data for KSWW (25 mi جنوب).
محفوظات أحدث تقرير روتيني عن حالة الطقس من أجل الطيران (الميتار) SWW ( لا توجد بيانات لـ56F)
| Date | Time (CDT) | Flight Rules | Wind Dir. | Speed | Type | Height AGL (ft) | Visibility | Temp (°C) | Temp (°F) | Dew Point (°C) | Dew Point (°F) | Rel. Humid. | Pressure | Density Altitude | Remarks |
|---|---|---|---|---|---|---|---|---|---|---|---|---|---|---|---|
| 05-سبت | 14:35 | VFR | 130° | 9 kt | 10 miles | 38° | 100° | 16° | 60° | 27% | 30.00 in Hg | 5,534 ft | |||
| 05-سبت | 14:15 | VFR | 80° | 3 kt | 10 miles | 38° | 100° | 16° | 60° | 28% | 30.01 in Hg | 5,524 ft | |||
| 05-سبت | 13:55 | VFR | 90° | 3 kt | 10 miles | 37° | 98° | 17° | 62° | 31% | 30.02 in Hg | 5,394 ft | |||
| 05-سبت | 13:35 | VFR | 150° | 6 kt | 10 miles | 36° | 96° | 16° | 60° | 31% | 30.02 in Hg | 5,274 ft | |||
| 05-سبت | 13:15 | VFR | 90° | 8 kt | 10 miles | 36° | 96° | 17° | 62° | 32% | 30.03 in Hg | 5,264 ft | |||
| 05-سبت | 12:55 | VFR | 70° | 3 kt | 10 miles | 36° | 96° | 17° | 62° | 32% | 30.03 in Hg | 5,264 ft | |||
| 05-سبت | 12:35 | VFR | 140° | 5 kt | 10 miles | 35° | 95° | 17° | 62° | 35% | 30.04 in Hg | 5,134 ft | |||
| 05-سبت | 12:15 | VFR | 180° | 5 kt | 10 miles | 35° | 95° | 18° | 64° | 38% | 30.04 in Hg | 5,134 ft | |||
| 05-سبت | 11:55 | VFR | 170° | 7 kt | 10 miles | 34° | 93° | 18° | 64° | 41% | 30.04 in Hg | 5,014 ft | |||
| 05-سبت | 11:35 | VFR | 150° | 7 kt | 10 miles | 33° | 91° | 20° | 68° | 46% | 30.05 in Hg | 4,884 ft | |||
| 05-سبت | 11:15 | VFR | 190° | 3 kt | 10 miles | 32° | 89° | 20° | 68° | 48% | 30.05 in Hg | 4,764 ft | |||
| 05-سبت | 10:55 | VFR | 210° | 8 kt | 10 miles | 31° | 87° | 20° | 68° | 52% | 30.04 in Hg | 4,654 ft | |||
| 05-سبت | 10:15 | VFR | 200° | 8 kt | 10 miles | 30° | 86° | 20° | 68° | 56% | 30.04 in Hg | 4,534 ft | |||
| 05-سبت | 09:55 | VFR | 190° | 7 kt | 10 miles | 29° | 84° | 20° | 68° | 59% | 30.04 in Hg | 4,414 ft | |||
| 05-سبت | 09:35 | VFR | 190° | 9 kt | 10 miles | 28° | 82° | 20° | 68° | 61% | 30.05 in Hg | 4,284 ft | |||
| 05-سبت | 09:15 | VFR | 200° | 9 kt | 10 miles | 27° | 80° | 20° | 68° | 64% | 30.04 in Hg | 4,174 ft | |||
| 05-سبت | 08:55 | VFR | 190° | 8 kt | 10 miles | 27° | 80° | 20° | 68° | 68% | 30.04 in Hg | 4,174 ft | |||
| 05-سبت | 08:35 | VFR | 190° | 5 kt | 10 miles | 26° | 78° | 21° | 69° | 74% | 30.04 in Hg | 4,054 ft | |||
| 05-سبت | 08:15 | VFR | 200° | 5 kt | 10 miles | 24° | 75° | 20° | 68° | 77% | 30.03 in Hg | 3,824 ft | |||
| 05-سبت | 07:55 | VFR | 190° | 6 kt | 10 miles | 23° | 73° | 19° | 66° | 77% | 30.03 in Hg | 3,704 ft | |||
| 05-سبت | 07:35 | VFR | 180° | 6 kt | 10 miles | 23° | 73° | 18° | 64° | 77% | 30.02 in Hg | 3,714 ft | |||
| 05-سبت | 07:15 | VFR | 180° | 6 kt | 10 miles | 23° | 73° | 18° | 64° | 76% | 30.02 in Hg | 3,714 ft | |||
| 05-سبت | 06:55 | VFR | 180° | 6 kt | 10 miles | 23° | 73° | 19° | 66° | 76% | 30.01 in Hg | 3,724 ft | |||
| 05-سبت | 06:35 | VFR | 180° | 7 kt | 10 miles | 23° | 73° | 18° | 64° | 75% | 30.02 in Hg | 3,714 ft |
تسجيل الدخول
| مُتصفحك غير مُدعَّم. قم بترقية متصفحك |
